createdAt,value
2017-11-08T00:01:24.341Z,67.80
2017-11-08T00:03:51.800Z,67.90
2017-11-08T00:06:19.273Z,67.90
2017-11-08T00:08:46.712Z,68.90
2017-11-08T00:11:14.197Z,68.20
2017-11-08T00:13:42.667Z,68.10
2017-11-08T00:16:10.229Z,68.10
2017-11-08T00:18:37.676Z,68.80
2017-11-08T00:21:05.137Z,67.90
2017-11-08T00:23:34.972Z,68.00
2017-11-08T00:26:03.253Z,68.00
2017-11-08T00:28:31.497Z,68.10
2017-11-08T00:30:58.981Z,68.10
2017-11-08T00:33:27.205Z,68.50
2017-11-08T00:35:54.737Z,68.40
2017-11-08T00:38:22.202Z,69.40
2017-11-08T00:40:49.681Z,68.60
2017-11-08T00:43:17.137Z,68.60
2017-11-08T00:45:44.609Z,68.60
2017-11-08T00:48:12.098Z,68.50
2017-11-08T00:50:39.785Z,68.60
2017-11-08T00:53:10.187Z,68.60
2017-11-08T00:55:37.675Z,68.50
2017-11-08T00:58:05.889Z,68.50
2017-11-08T01:00:34.837Z,68.50
2017-11-08T01:03:03.046Z,68.50
2017-11-08T01:05:30.519Z,68.50
2017-11-08T01:07:58.021Z,68.50
2017-11-08T01:10:26.265Z,68.60
2017-11-08T01:12:53.746Z,68.60
2017-11-08T01:15:21.992Z,68.10
2017-11-08T01:17:49.455Z,68.60
2017-11-08T01:20:16.954Z,68.60
2017-11-08T01:22:45.206Z,68.70
2017-11-08T01:25:13.038Z,68.70
2017-11-08T01:27:40.518Z,68.70
2017-11-08T01:30:07.981Z,68.80
2017-11-08T01:32:35.456Z,68.90
2017-11-08T01:35:02.930Z,69.00
2017-11-08T01:37:36.880Z,68.90
2017-11-08T01:40:10.892Z,68.90
2017-11-08T01:42:38.386Z,68.90
2017-11-08T01:45:07.789Z,69.80
2017-11-08T01:47:35.274Z,69.00
2017-11-08T01:50:03.494Z,69.10
2017-11-08T01:52:30.997Z,69.10
2017-11-08T01:54:58.445Z,69.10
2017-11-08T01:57:25.906Z,69.00
2017-11-08T01:59:53.389Z,69.10
2017-11-08T02:02:20.842Z,69.10
2017-11-08T02:04:48.325Z,69.10
2017-11-08T02:07:15.811Z,69.20
2017-11-08T02:09:43.268Z,69.20
2017-11-08T02:12:11.297Z,69.10
2017-11-08T02:14:38.782Z,69.10
2017-11-08T02:17:07.068Z,69.10
2017-11-08T02:19:35.331Z,69.30
2017-11-08T02:22:02.817Z,69.20
2017-11-08T02:24:30.275Z,69.30
2017-11-08T02:27:03.457Z,69.20
2017-11-08T02:29:30.917Z,69.30
2017-11-08T02:31:58.409Z,69.30
2017-11-08T02:34:26.654Z,69.40
2017-11-08T02:36:54.133Z,69.40
2017-11-08T02:39:21.598Z,70.00
2017-11-08T02:41:49.236Z,69.30
2017-11-08T02:44:17.490Z,69.20
2017-11-08T02:46:45.027Z,69.20
2017-11-08T02:49:12.491Z,69.20
2017-11-08T02:51:39.951Z,69.30
2017-11-08T02:54:10.184Z,69.20
2017-11-08T02:56:37.660Z,69.10
2017-11-08T02:59:05.147Z,69.10
2017-11-08T03:01:32.611Z,69.10
2017-11-08T03:04:02.861Z,69.10
2017-11-08T03:06:30.345Z,69.00
2017-11-08T03:08:57.804Z,69.00
2017-11-08T03:11:25.277Z,69.00
2017-11-08T03:13:52.766Z,69.10
2017-11-08T03:16:20.248Z,69.20
2017-11-08T03:18:47.724Z,69.20
2017-11-08T03:21:15.219Z,69.20
2017-11-08T03:23:42.677Z,69.20
2017-11-08T03:26:10.157Z,69.30
2017-11-08T03:28:37.634Z,69.20
2017-11-08T03:31:05.142Z,69.20
2017-11-08T03:33:32.608Z,69.30
2017-11-08T03:36:00.114Z,69.30
2017-11-08T03:38:28.384Z,69.40
2017-11-08T03:40:56.642Z,69.50
2017-11-08T03:43:24.106Z,69.50
2017-11-08T03:45:51.605Z,69.50
2017-11-08T03:48:19.068Z,69.50
2017-11-08T03:50:46.560Z,69.50
2017-11-08T03:53:14.031Z,69.50
2017-11-08T03:55:41.519Z,69.50
2017-11-08T03:58:09.740Z,69.40
2017-11-08T04:00:37.199Z,69.40
2017-11-08T04:03:04.681Z,69.50
2017-11-08T04:05:32.145Z,69.50
2017-11-08T04:07:59.609Z,69.60
2017-11-08T04:10:27.077Z,69.60
2017-11-08T04:12:54.538Z,69.70
2017-11-08T04:15:22.130Z,69.60
2017-11-08T04:17:49.613Z,69.50
2017-11-08T04:20:17.077Z,69.50
2017-11-08T04:22:44.577Z,69.60
2017-11-08T04:25:12.037Z,69.70
2017-11-08T04:27:39.502Z,69.70
2017-11-08T04:30:07.007Z,69.60
2017-11-08T04:32:34.468Z,69.50
2017-11-08T04:35:01.953Z,69.50
2017-11-08T04:37:30.185Z,69.60
2017-11-08T04:39:57.638Z,69.60
2017-11-08T04:42:25.104Z,69.20
2017-11-08T04:44:52.572Z,69.50
2017-11-08T04:47:20.050Z,69.40
2017-11-08T04:49:47.497Z,69.50
2017-11-08T04:52:15.495Z,69.50
2017-11-08T04:54:43.005Z,69.50
2017-11-08T04:57:11.251Z,69.60
2017-11-08T04:59:38.712Z,69.60
2017-11-08T05:02:06.161Z,69.70
2017-11-08T05:04:33.641Z,69.70
2017-11-08T05:07:01.188Z,69.70
2017-11-08T05:09:28.657Z,69.60
2017-11-08T05:11:56.113Z,69.60
2017-11-08T05:14:23.605Z,69.70
2017-11-08T05:16:51.057Z,69.60
2017-11-08T05:19:18.536Z,69.70
2017-11-08T05:21:46.844Z,69.70
2017-11-08T05:24:16.166Z,69.70
2017-11-08T05:26:44.002Z,69.60
2017-11-08T05:29:11.813Z,69.60
2017-11-08T05:31:39.286Z,69.50
2017-11-08T05:34:06.733Z,69.60
2017-11-08T05:36:34.184Z,69.50
2017-11-08T05:39:01.665Z,69.50
2017-11-08T05:41:29.118Z,69.60
2017-11-08T05:43:56.605Z,69.70
2017-11-08T05:46:24.047Z,69.80
2017-11-08T05:48:51.506Z,69.70
2017-11-08T05:51:18.962Z,69.70
2017-11-08T05:53:46.437Z,69.70
2017-11-08T05:56:13.919Z,69.70
2017-11-08T05:58:41.407Z,69.80
2017-11-08T06:01:08.885Z,69.80
2017-11-08T06:03:36.346Z,69.60
2017-11-08T06:06:04.648Z,69.70
2017-11-08T06:08:32.156Z,69.70
2017-11-08T06:10:59.606Z,69.70
2017-11-08T06:13:27.067Z,69.70
2017-11-08T06:15:54.545Z,69.70
2017-11-08T06:18:22.051Z,69.80
2017-11-08T06:20:50.268Z,69.70
2017-11-08T06:23:17.834Z,69.70
2017-11-08T06:25:46.255Z,69.70
2017-11-08T06:28:13.726Z,69.70
2017-11-08T06:30:41.993Z,69.70
2017-11-08T06:33:09.443Z,69.70
2017-11-08T06:35:36.914Z,69.70
2017-11-08T06:38:05.152Z,69.90
2017-11-08T06:40:32.607Z,69.80
2017-11-08T06:43:00.086Z,69.80
2017-11-08T06:45:27.574Z,69.80
2017-11-08T06:47:55.819Z,69.70
2017-11-08T06:50:23.267Z,69.70
2017-11-08T06:52:50.737Z,69.70
2017-11-08T06:55:18.189Z,69.60
2017-11-08T06:57:45.666Z,69.50
2017-11-08T07:00:13.119Z,69.70
2017-11-08T07:02:40.607Z,69.70
2017-11-08T07:05:09.010Z,69.80
2017-11-08T07:07:36.465Z,69.80
2017-11-08T07:10:03.913Z,69.80
2017-11-08T07:12:31.389Z,69.80
2017-11-08T07:14:58.870Z,69.70
2017-11-08T07:17:31.289Z,69.60
2017-11-08T07:19:59.519Z,69.60
2017-11-08T07:22:26.977Z,69.50
2017-11-08T07:24:54.454Z,69.50
2017-11-08T07:27:21.950Z,69.60
2017-11-08T07:29:49.404Z,69.50
2017-11-08T07:32:17.567Z,69.60
2017-11-08T07:34:45.806Z,69.60
2017-11-08T07:37:13.282Z,69.60
2017-11-08T07:39:40.738Z,69.40
2017-11-08T07:42:08.198Z,69.30
2017-11-08T07:44:35.685Z,69.20
2017-11-08T07:47:03.902Z,69.40
2017-11-08T07:49:31.358Z,69.30
2017-11-08T07:51:58.834Z,69.40
2017-11-08T07:54:26.332Z,69.30
2017-11-08T07:56:55.768Z,69.20
2017-11-08T07:59:26.185Z,69.20
2017-11-08T08:01:53.662Z,69.40
2017-11-08T08:04:21.154Z,69.30
2017-11-08T08:06:48.630Z,69.40
2017-11-08T08:09:16.849Z,69.30
2017-11-08T08:11:47.115Z,69.30
2017-11-08T08:14:14.591Z,69.30
2017-11-08T08:16:42.855Z,69.20
2017-11-08T08:19:10.318Z,69.10
2017-11-08T08:21:37.777Z,69.30
2017-11-08T08:24:05.262Z,69.00
2017-11-08T08:26:32.817Z,69.20
2017-11-08T08:29:01.220Z,69.10
2017-11-08T08:31:28.687Z,69.20
2017-11-08T08:33:56.182Z,69.30
2017-11-08T08:36:23.642Z,69.40
2017-11-08T08:38:51.127Z,69.20
2017-11-08T08:41:19.749Z,68.90
2017-11-08T08:43:47.239Z,68.90
2017-11-08T08:46:14.735Z,68.90
2017-11-08T08:48:42.205Z,68.90
2017-11-08T08:51:09.670Z,68.90
2017-11-08T08:53:37.157Z,68.90
2017-11-08T08:56:04.613Z,68.80
2017-11-08T08:58:32.069Z,68.90
2017-11-08T09:00:59.554Z,68.70
2017-11-08T09:03:27.010Z,68.90
2017-11-08T09:05:54.463Z,68.90
2017-11-08T09:08:21.946Z,68.80
2017-11-08T09:10:50.485Z,68.80
2017-11-08T09:13:18.002Z,68.80
2017-11-08T09:15:45.471Z,68.80
2017-11-08T09:18:12.950Z,68.90
2017-11-08T09:20:40.421Z,68.90
2017-11-08T09:23:07.874Z,69.10
2017-11-08T09:25:35.333Z,69.10
2017-11-08T09:28:02.818Z,69.10
2017-11-08T09:30:30.286Z,69.00
2017-11-08T09:32:57.762Z,68.90
2017-11-08T09:35:25.243Z,69.00
2017-11-08T09:40:46.377Z,68.80
2017-11-08T09:43:19.565Z,68.90
2017-11-08T09:45:47.045Z,68.70
2017-11-08T09:48:14.493Z,68.80
2017-11-08T09:50:41.951Z,68.90
2017-11-08T09:53:09.429Z,68.90
2017-11-08T09:55:36.884Z,68.90
2017-11-08T09:58:04.363Z,68.80
2017-11-08T10:00:31.818Z,68.80
2017-11-08T10:02:59.294Z,68.70
2017-11-08T10:05:30.364Z,68.80
2017-11-08T10:07:58.758Z,68.70
2017-11-08T10:10:30.090Z,68.80
2017-11-08T10:13:03.127Z,68.90
2017-11-08T10:15:30.613Z,68.70
2017-11-08T10:17:58.874Z,68.50
2017-11-08T10:20:26.326Z,68.50
2017-11-08T10:22:53.818Z,68.70
2017-11-08T10:25:21.274Z,68.80
2017-11-08T10:27:49.522Z,68.80
2017-11-08T10:30:17.012Z,69.50
2017-11-08T10:32:44.462Z,68.60
2017-11-08T10:35:12.015Z,68.40
2017-11-08T10:37:40.283Z,68.40
2017-11-08T10:40:07.739Z,68.40
2017-11-08T10:42:35.163Z,68.50
2017-11-08T10:45:03.450Z,68.60
2017-11-08T10:47:31.676Z,68.50
2017-11-08T10:49:59.150Z,68.40
2017-11-08T10:52:26.602Z,68.20
2017-11-08T10:54:54.084Z,68.10
2017-11-08T10:57:22.002Z,68.20
2017-11-08T10:59:51.271Z,68.30
2017-11-08T11:02:19.528Z,68.20
2017-11-08T11:04:47.836Z,68.10
2017-11-08T11:07:15.323Z,68.10
2017-11-08T11:09:42.780Z,68.20
2017-11-08T11:12:10.276Z,68.10
2017-11-08T11:14:37.736Z,68.20
2017-11-08T11:17:05.230Z,68.00
2017-11-08T11:19:32.692Z,67.90
2017-11-08T11:22:02.048Z,68.60
2017-11-08T11:24:33.438Z,67.90
2017-11-08T11:27:07.374Z,68.10
2017-11-08T11:29:34.867Z,68.10
2017-11-08T11:32:02.354Z,68.00
2017-11-08T11:34:30.603Z,68.40
2017-11-08T11:36:58.075Z,68.00
2017-11-08T11:39:25.535Z,67.70
2017-11-08T11:41:53.016Z,67.80
2017-11-08T11:44:21.251Z,66.60
2017-11-08T11:46:48.740Z,66.60
2017-11-08T11:49:16.971Z,66.60
2017-11-08T11:51:44.447Z,66.60
2017-11-08T11:54:11.930Z,66.30
2017-11-08T11:56:39.420Z,66.20
2017-11-08T11:59:06.935Z,66.20
2017-11-08T12:01:34.427Z,66.00
2017-11-08T12:04:01.912Z,65.90
2017-11-08T12:06:29.402Z,65.90
2017-11-08T12:08:56.879Z,66.00
2017-11-08T12:11:24.358Z,66.00
2017-11-08T12:13:53.548Z,66.10
2017-11-08T12:16:21.020Z,66.10
2017-11-08T12:18:48.522Z,66.10
2017-11-08T12:21:15.993Z,65.90
2017-11-08T12:23:43.470Z,65.80
2017-11-08T12:26:11.003Z,65.80
2017-11-08T12:28:44.416Z,65.90
2017-11-08T12:31:11.933Z,65.90
2017-11-08T12:33:39.417Z,65.50
2017-11-08T12:36:06.871Z,65.60
2017-11-08T12:38:38.189Z,65.70
2017-11-08T12:41:05.651Z,65.70
2017-11-08T12:43:33.127Z,65.40
2017-11-08T12:46:00.616Z,65.50
2017-11-08T12:48:28.074Z,65.80
2017-11-08T12:50:55.542Z,65.60
2017-11-08T12:53:23.958Z,65.70
2017-11-08T12:55:52.198Z,65.90
2017-11-08T12:58:19.691Z,65.90
2017-11-08T13:00:47.169Z,65.70
2017-11-08T13:03:14.675Z,65.90
2017-11-08T13:05:42.146Z,66.00
2017-11-08T13:08:10.374Z,66.00
2017-11-08T13:10:43.415Z,66.00
2017-11-08T13:13:10.886Z,66.10
2017-11-08T13:15:39.118Z,66.00
2017-11-08T13:18:06.598Z,65.90
2017-11-08T13:20:34.063Z,65.90
2017-11-08T13:23:01.545Z,65.70
2017-11-08T13:25:29.850Z,65.70
2017-11-08T13:27:57.335Z,65.70
2017-11-08T13:30:24.818Z,65.70
2017-11-08T13:32:52.316Z,65.70
2017-11-08T13:35:19.787Z,65.90
2017-11-08T13:37:47.324Z,65.80
2017-11-08T13:40:14.788Z,65.70
2017-11-08T13:42:42.283Z,66.30
2017-11-08T13:45:09.747Z,65.70
2017-11-08T13:47:37.236Z,65.60
2017-11-08T13:50:04.743Z,65.50
2017-11-08T13:52:32.203Z,65.50
2017-11-08T13:54:59.713Z,65.40
2017-11-08T13:57:27.972Z,65.20
2017-11-08T13:59:55.440Z,65.20
2017-11-08T14:02:22.929Z,65.20
2017-11-08T14:04:50.410Z,65.30
2017-11-08T14:07:17.873Z,65.30
2017-11-08T14:09:45.364Z,65.10
2017-11-08T14:12:12.854Z,65.00
2017-11-08T14:14:40.316Z,65.10
2017-11-08T14:17:07.867Z,65.10
2017-11-08T14:19:36.120Z,65.10
2017-11-08T14:22:03.616Z,65.00
2017-11-08T14:24:31.834Z,65.10
2017-11-08T14:27:00.068Z,65.10
2017-11-08T14:29:30.342Z,65.10
2017-11-08T14:31:57.798Z,65.10
2017-11-08T14:34:28.455Z,65.30
2017-11-08T14:36:55.943Z,65.40
2017-11-08T14:39:23.413Z,65.30
2017-11-08T14:41:50.912Z,65.50
2017-11-08T14:44:18.405Z,65.50
2017-11-08T14:46:45.979Z,65.60
2017-11-08T14:49:14.208Z,65.70
2017-11-08T14:51:41.703Z,65.70
2017-11-08T14:54:09.927Z,65.70
2017-11-08T14:56:37.399Z,65.70
2017-11-08T14:59:04.879Z,66.10
2017-11-08T15:01:32.363Z,65.70
2017-11-08T15:03:59.844Z,65.80
2017-11-08T15:06:27.343Z,66.00
2017-11-08T15:08:54.810Z,66.00
2017-11-08T15:11:22.272Z,66.00
2017-11-08T15:13:49.762Z,66.00
2017-11-08T15:16:17.311Z,66.00
2017-11-08T15:18:45.565Z,65.90
2017-11-08T15:21:13.033Z,65.80
2017-11-08T15:23:41.299Z,65.70
2017-11-08T15:26:08.792Z,65.70
2017-11-08T15:28:36.253Z,65.80
2017-11-08T15:31:05.479Z,65.70
2017-11-08T15:33:34.752Z,65.70
2017-11-08T15:36:02.220Z,65.70
2017-11-08T15:38:29.690Z,65.80
2017-11-08T15:40:57.187Z,65.80
2017-11-08T15:43:26.488Z,65.90
2017-11-08T15:45:53.986Z,66.00
2017-11-08T15:48:21.478Z,66.00
2017-11-08T15:50:48.955Z,65.80
2017-11-08T15:53:17.182Z,65.90
2017-11-08T15:55:44.663Z,65.90
2017-11-08T15:58:12.159Z,66.00
2017-11-08T16:00:39.665Z,66.70
2017-11-08T16:03:08.970Z,67.20
2017-11-08T16:05:36.429Z,67.30
2017-11-08T16:08:03.924Z,67.40
2017-11-08T16:10:34.183Z,67.30
2017-11-08T16:13:04.988Z,67.30
2017-11-08T16:15:33.368Z,67.20
2017-11-08T16:18:00.860Z,67.40
2017-11-08T16:20:29.107Z,67.40
2017-11-08T16:22:57.088Z,67.30
2017-11-08T16:25:24.543Z,67.40
2017-11-08T16:27:52.013Z,67.40
2017-11-08T16:30:19.484Z,67.50
2017-11-08T16:32:47.708Z,67.20
2017-11-08T16:35:15.195Z,67.20
2017-11-08T16:37:42.671Z,67.20
2017-11-08T16:40:10.151Z,67.20
2017-11-08T16:42:37.630Z,67.30
2017-11-08T16:45:05.146Z,67.30
2017-11-08T16:47:33.386Z,67.30
2017-11-08T16:50:00.867Z,67.30
2017-11-08T16:52:29.104Z,68.00
2017-11-08T16:54:57.508Z,67.30
2017-11-08T16:57:24.983Z,67.40
2017-11-08T16:59:52.448Z,67.40
2017-11-08T17:02:19.937Z,67.40
2017-11-08T17:04:47.403Z,67.40
2017-11-08T17:07:14.956Z,67.30
2017-11-08T17:09:42.417Z,67.40
2017-11-08T17:12:09.901Z,67.50
2017-11-08T17:14:37.356Z,67.40
2017-11-08T17:17:04.838Z,67.50
2017-11-08T17:19:32.312Z,67.50
2017-11-08T17:21:59.786Z,67.60
2017-11-08T17:24:27.769Z,67.60
2017-11-08T17:26:55.273Z,67.60
2017-11-08T17:29:22.759Z,67.60
2017-11-08T17:31:50.214Z,67.70
2017-11-08T17:34:17.726Z,67.70
2017-11-08T17:36:45.257Z,67.60
2017-11-08T17:39:13.511Z,67.60
2017-11-08T17:41:40.958Z,67.50
2017-11-08T17:44:08.419Z,67.60
2017-11-08T17:46:35.917Z,67.60
2017-11-08T17:49:03.380Z,67.60
2017-11-08T17:51:30.880Z,67.60
2017-11-08T17:53:58.351Z,67.60
2017-11-08T17:56:25.842Z,67.60
2017-11-08T17:58:53.305Z,67.70
2017-11-08T18:01:20.787Z,67.70
2017-11-08T18:03:48.247Z,67.70
2017-11-08T18:06:15.790Z,67.70
2017-11-08T18:08:43.464Z,67.80
2017-11-08T18:11:11.030Z,68.00
2017-11-08T18:13:38.573Z,68.00
2017-11-08T18:16:06.048Z,67.90
2017-11-08T18:18:33.539Z,67.80
2017-11-08T18:21:01.011Z,67.80
2017-11-08T18:23:28.586Z,67.80
2017-11-08T18:25:56.818Z,67.90
2017-11-08T18:28:24.285Z,67.90
2017-11-08T18:30:51.771Z,67.90
2017-11-08T18:33:19.999Z,68.00
2017-11-08T18:35:47.550Z,67.90
2017-11-08T18:38:15.007Z,68.60
2017-11-08T18:40:42.470Z,67.90
2017-11-08T18:43:10.031Z,68.00
2017-11-08T18:45:37.481Z,68.20
2017-11-08T18:48:04.977Z,68.20
2017-11-08T18:50:32.528Z,68.20
2017-11-08T18:53:00.864Z,68.20
2017-11-08T18:55:29.118Z,68.30
2017-11-08T18:57:56.575Z,68.00
2017-11-08T19:00:24.069Z,68.40
2017-11-08T19:02:51.526Z,68.50
2017-11-08T19:05:19.067Z,68.50
2017-11-08T19:07:46.551Z,68.60
2017-11-08T19:10:14.012Z,68.70
2017-11-08T19:12:41.504Z,68.90
2017-11-08T19:15:08.967Z,69.00
2017-11-08T19:17:36.431Z,69.00
2017-11-08T19:20:04.668Z,69.20
2017-11-08T19:22:32.120Z,69.20
2017-11-08T19:24:59.608Z,69.40
2017-11-08T19:27:27.076Z,69.30
2017-11-08T19:29:54.566Z,69.40
2017-11-08T19:32:22.045Z,69.50
2017-11-08T19:34:49.535Z,69.40
2017-11-08T19:37:17.031Z,69.50
2017-11-08T19:39:44.682Z,69.60
2017-11-08T19:42:12.222Z,69.60
2017-11-08T19:44:39.673Z,69.70
2017-11-08T19:47:07.445Z,69.70
2017-11-08T19:49:35.047Z,69.60
2017-11-08T19:52:02.547Z,69.70
2017-11-08T19:54:30.023Z,69.70
2017-11-08T19:56:57.486Z,69.60
2017-11-08T19:59:25.059Z,69.70
2017-11-08T20:01:52.693Z,69.70
2017-11-08T20:04:21.055Z,69.80
2017-11-08T20:06:48.889Z,69.80
2017-11-08T20:09:16.498Z,69.80
2017-11-08T20:11:44.122Z,68.70
2017-11-08T20:14:11.752Z,68.70
2017-11-08T20:16:39.219Z,68.70
2017-11-08T20:19:06.698Z,68.60
2017-11-08T20:21:34.199Z,68.60
2017-11-08T20:24:01.668Z,68.60
2017-11-08T20:26:29.167Z,69.50
2017-11-08T20:28:57.400Z,68.70
2017-11-08T20:31:24.899Z,68.70
2017-11-08T20:33:52.398Z,68.70
2017-11-08T20:36:19.850Z,69.90
2017-11-08T20:38:47.355Z,68.80
2017-11-08T20:41:15.023Z,68.70
2017-11-08T20:43:42.508Z,68.70
2017-11-08T20:46:10.093Z,68.70
2017-11-08T20:48:37.580Z,69.90
2017-11-08T20:51:05.093Z,68.80
2017-11-08T20:53:32.559Z,68.90
2017-11-08T20:56:00.919Z,68.90
2017-11-08T20:58:28.405Z,70.00
2017-11-08T21:00:55.978Z,68.90
2017-11-08T21:03:23.458Z,68.90
2017-11-08T21:05:51.346Z,68.80
2017-11-08T21:08:19.603Z,68.80
2017-11-08T21:10:47.118Z,68.80
2017-11-08T21:13:14.610Z,68.80
2017-11-08T21:15:42.085Z,68.80
2017-11-08T21:18:09.571Z,68.80
2017-11-08T21:20:37.030Z,68.80
2017-11-08T21:23:04.526Z,68.90
2017-11-08T21:25:32.038Z,68.90
2017-11-08T21:28:00.279Z,68.80
2017-11-08T21:30:27.778Z,69.90
2017-11-08T21:32:56.178Z,69.90
2017-11-08T21:35:23.636Z,69.90
2017-11-08T21:37:51.163Z,69.90
2017-11-08T21:40:19.397Z,69.90
2017-11-08T21:42:46.871Z,69.90
2017-11-08T21:45:14.346Z,70.10
2017-11-08T21:47:41.817Z,70.10
2017-11-08T21:50:10.060Z,70.10
2017-11-08T21:52:37.793Z,70.10
2017-11-08T21:55:05.279Z,70.00
2017-11-08T21:57:32.731Z,69.90
2017-11-08T22:00:00.223Z,70.00
2017-11-08T22:02:27.695Z,70.00
2017-11-08T22:04:55.915Z,70.00
2017-11-08T22:07:23.416Z,70.00
2017-11-08T22:09:50.888Z,70.00
2017-11-08T22:12:18.350Z,70.00
2017-11-08T22:14:45.848Z,70.00
2017-11-08T22:17:13.368Z,70.80
2017-11-08T22:19:41.620Z,70.10
2017-11-08T22:22:09.094Z,70.10
2017-11-08T22:24:37.323Z,70.30
2017-11-08T22:27:04.803Z,70.20
2017-11-08T22:29:32.266Z,70.20
2017-11-08T22:31:59.744Z,70.10
2017-11-08T22:34:27.962Z,70.20
2017-11-08T22:36:55.447Z,70.10
2017-11-08T22:39:22.906Z,70.20
2017-11-08T22:41:50.391Z,70.20
2017-11-08T22:44:18.615Z,70.20
2017-11-08T22:46:46.331Z,70.20
2017-11-08T22:49:14.579Z,70.20
2017-11-08T22:51:42.055Z,70.20
2017-11-08T22:54:09.538Z,70.20
2017-11-08T22:56:37.791Z,70.10
2017-11-08T22:59:05.270Z,70.10
2017-11-08T23:01:33.503Z,70.00
2017-11-08T23:04:00.978Z,70.00
2017-11-08T23:06:28.454Z,70.00
2017-11-08T23:08:56.679Z,70.00
2017-11-08T23:11:24.150Z,70.00
2017-11-08T23:13:51.612Z,69.90
2017-11-08T23:16:19.911Z,70.00
2017-11-08T23:18:47.368Z,70.00
2017-11-08T23:21:14.848Z,70.00
2017-11-08T23:23:43.078Z,70.20
2017-11-08T23:26:10.559Z,70.00
2017-11-08T23:28:38.191Z,70.10
2017-11-08T23:31:05.671Z,70.00
2017-11-08T23:33:33.287Z,70.10
2017-11-08T23:36:00.745Z,70.20
2017-11-08T23:38:28.213Z,70.10
2017-11-08T23:40:55.787Z,70.00
2017-11-08T23:43:23.247Z,70.00
2017-11-08T23:45:50.736Z,70.00
2017-11-08T23:48:18.195Z,70.10
2017-11-08T23:50:45.691Z,70.10
2017-11-08T23:53:13.157Z,70.10
2017-11-08T23:55:40.615Z,70.20
2017-11-08T23:58:08.094Z,70.10
